• Join FlightAware (Why Join?)
  • Login
  • US Flag 
11:04AM EDT


 

Airport Tracker/Info


-or-


 

Live Flight TrackerFlight Track Log ✈ EJA269 ✈ 23-Apr-2012 ✈ KMDW - KILG

Flight Track Log - Related Links

Times and Time Zones

All times are in EDT time to prevent confusion due to time zone crossing. See the EJA269 flight status page for this flight to view local times or setup timezone preferences in your user account.

Time Position Orientation Groundspeed Altitude Reporting Facility
EDT Latitude Longitude Course Direction KTS MPH feet Rate Location/Type
06:42PM 41.8000 -87.7000 91° East 186 214 2,500  Level Chicago TRACON
06:45PM 41.7975 -87.4922 93° East 255 293 5,000 840 Climbing Chicago Center
06:46PM 41.7939 -87.3864 96° East 276 318 5,400 2,520 Climbing Chicago Center
06:48PM 41.7753 -87.1669 97° East 292 336 12,700 3,480 Climbing Chicago Center
06:49PM 41.7644 -87.0503 89° East 306 352 15,900 3,000 Climbing Chicago Center
06:50PM 41.7661 -86.9250 90° East 317 365 18,800 2,940 Climbing Chicago Center
06:51PM 41.7653 -86.7942 90° East 335 386 21,800 2,520 Climbing Chicago Center
06:52PM 41.7647 -86.6744 88° East 340 391 23,900 2,100 Climbing Chicago Center
06:53PM 41.7678 -86.5353 90° East 366 421 26,100 2,100 Climbing Chicago Center
06:54PM 41.7683 -86.3903 91° East 377 434 28,200 1,920 Climbing Chicago Center
06:55PM 41.7664 -86.2428 94° East 389 448 30,000 1,620 Climbing Chicago Center
06:56PM 41.7578 -86.0847 95° East 408 470 31,500 1,500 Climbing Chicago Center
06:57PM 41.7469 -85.9292 96° East 418 481 33,100 1,560 Climbing Chicago Center
06:58PM 41.7333 -85.7547 94° East 423 487 34,700 1,320 Climbing Chicago Center
06:59PM 41.7239 -85.5936 97° East 423 487 35,800 1,200 Climbing Chicago Center
07:00PM 41.7103 -85.4358 95° East 423 487 37,100 1,140 Climbing Chicago Center
07:01PM 41.6992 -85.2728 95° East 425 489 38,200 900 Climbing Cleveland Center
07:02PM 41.6889 -85.1133 95° East 440 506 39,000 360 Climbing Cleveland Center
07:03PM 41.6789 -84.9458 96° East 440 506 39,000  Level Cleveland Center
07:04PM 41.6678 -84.7975 94° East 452 520 39,000  Level Cleveland Center
07:05PM 41.6594 -84.6192 94° East 468 539 39,000  Level Cleveland Center
07:06PM 41.6511 -84.4436 94° East 473 544 39,000  Level Cleveland Center
07:07PM 41.6422 -84.2650 92° East 478 550 39,000  Level Cleveland Center
07:08PM 41.6358 -84.0728 99° East 472 543 39,000  Level Cleveland Center
07:09PM 41.6158 -83.8997 107° East 477 549 39,000  Level Cleveland Center
07:10PM 41.5769 -83.7311 108° East 471 542 39,000  Level Cleveland Center
07:11PM 41.5356 -83.5625 108° East 476 548 39,000  Level Cleveland Center
07:12PM 41.4958 -83.3972 107° East 476 548 39,000  Level Cleveland Center
07:13PM 41.4561 -83.2264 106° East 476 548 39,000  Level Cleveland Center
07:14PM 41.4222 -83.0728 108° East 476 548 39,000  Level Cleveland Center
07:15PM 41.3819 -82.9050 108° East 476 548 39,000  Level Cleveland Center
07:16PM 41.3414 -82.7375 109° East 476 548 39,000  Level Cleveland Center
07:17PM 41.3006 -82.5758 107° East 464 534 39,000  Level Cleveland Center
07:18PM 41.2617 -82.4089 108° East 469 540 39,000  Level Cleveland Center
07:19PM 41.2203 -82.2422 109° East 469 540 39,000  Level Cleveland Center
07:20PM 41.1728 -82.0644 106° East 469 540 39,000  Level Cleveland Center
07:21PM 41.1353 -81.8953 110° East 469 540 39,000  Level Cleveland Center
07:22PM 41.0953 -81.7486 108° East 469 540 39,000  Level Cleveland Center
07:23PM 41.0550 -81.5825 108° East 469 540 39,000  Level Cleveland Center
07:24PM 41.0147 -81.4169 109° East 469 540 39,000  Level Cleveland Center
07:25PM 40.9719 -81.2514 109° East 469 540 39,000  Level Cleveland Center
07:26PM 40.9269 -81.0833 108° East 469 540 39,000  Level Cleveland Center
07:27PM 40.8858 -80.9208 109° East 469 540 39,000  Level Cleveland Center
07:28PM 40.8425 -80.7586 109° East 469 540 39,000  Level Cleveland Center
07:29PM 40.7947 -80.5775 109° East 469 540 39,000  Level Cleveland Center
07:30PM 40.7508 -80.4131 120° Southeast 474 545 39,000  Level Cleveland Center
07:31PM 40.6881 -80.2683 130° Southeast 468 539 39,000  Level Cleveland Center
07:32PM 40.6061 -80.1400 125° Southeast 456 525 39,000  Level Cleveland Center
07:33PM 40.5347 -80.0067 98° East 451 519 39,000  Level Cleveland Center
07:34PM 40.5194 -79.8619 98° East 433 498 39,000 -180 Level Cleveland Center
07:35PM 40.5017 -79.7039 97° East 428 493 38,700 -840 Descending Cleveland Center
07:36PM 40.4856 -79.5403 98° East 439 505 37,400 -1,320 Descending Cleveland Center
07:37PM 40.4694 -79.3822 99° East 445 512 36,100 -1,320 Descending Cleveland Center
07:38PM 40.4486 -79.2108 97° East 445 512 34,800 -1,260 Descending Cleveland Center
07:39PM 40.4342 -79.0528 99° East 440 506 33,600 -1,200 Descending Cleveland Center
07:40PM 40.4153 -78.8978 98° East 440 506 32,400 -1,260 Descending Cleveland Center
07:41PM 40.3983 -78.7347 98° East 446 513 31,100 -1,260 Descending Cleveland Center
07:42PM 40.3811 -78.5769 98° East 446 513 29,900 -1,320 Descending Cleveland Center
07:44PM 40.3456 -78.2500 100° East 453 521 27,300 -1,320 Descending New York Center
07:45PM 40.3258 -78.0981 97° East 466 536 26,000 -1,200 Descending New York Center
07:46PM 40.3111 -77.9303 94° East 471 542 25,000 -900 Descending New York Center
07:47PM 40.3022 -77.7658 99° East 466 536 24,200 -1,080 Descending New York Center
07:48PM 40.2828 -77.6006 99° East 466 536 22,900 -1,320 Descending New York Center
07:49PM 40.2628 -77.4408 98° East 454 522 21,600 -1,320 Descending New York Center
07:50PM 40.2431 -77.2675 99° East 443 510 20,300 -1,320 Descending New York Center
07:51PM 40.2228 -77.1081 99° East 437 503 19,000 -1,440 Descending New York Center
07:52PM 40.2069 -76.9733 85° East 427 491 17,500 -1,200 Descending New York Center
07:53PM 40.2164 -76.8300 81° East 401 461 16,700 -1,020 Descending New York Center
07:54PM 40.2342 -76.6847 99° East 407 468 15,500 -1,320 Descending New York Center
07:55PM 40.2147 -76.5308 102° East 397 457 14,100 -1,260 Descending New York Center
07:56PM 40.1922 -76.3903 103° East 391 450 13,000 -720 Descending New York Center
07:56PM 40.1767 -76.2994 102° East 383 441 13,000  Level FAA TRACON SMA TRACON (SMA)
07:57PM 40.1608 -76.2050 103° East 383 441 13,000  Level FAA TRACON SMA TRACON (SMA)
07:58PM 40.1464 -76.1211 103° East 384 442 13,000 -540 Level FAA TRACON SMA TRACON (SMA)
07:58PM 40.1306 -76.0281 102° East 377 434 12,300 -1,560 Descending FAA TRACON SMA TRACON (SMA)
07:59PM 40.1169 -75.9475 103° East 322 371 10,900 -1,800 Descending FAA TRACON SMA TRACON (SMA)
08:00PM 40.1050 -75.8800 123° Southeast 308 354 9,900 -1,620 Descending FAA TRACON SMA TRACON (SMA)
08:00PM 40.0756 -75.8214 145° Southeast 277 319 8,800 -1,440 Descending FAA TRACON SMA TRACON (SMA)
08:01PM 40.0356 -75.7847 150° Southeast 283 326 8,000 -1,440 Descending FAA TRACON SMA TRACON (SMA)
08:02PM 39.9878 -75.7486 150° Southeast 288 331 6,900 -1,620 Descending FAA TRACON SMA TRACON (SMA)
08:02PM 39.9400 -75.7133 150° Southeast 283 326 5,900 -1,800 Descending FAA TRACON SMA TRACON (SMA)
08:03PM 39.8964 -75.6806 152° Southeast 272 313 4,600 -1,920 Descending FAA TRACON SMA TRACON (SMA)
08:04PM 39.8547 -75.6511 150° Southeast 267 307 3,400 -1,440 Descending FAA TRACON SMA TRACON (SMA)
08:04PM 39.8117 -75.6192 147° Southeast 253 291 2,700 -900 Descending FAA TRACON SMA TRACON (SMA)
08:05PM 39.7750 -75.5886 148° Southeast 220 253 2,200 -780 Descending FAA TRACON SMA TRACON (SMA)
08:06PM 39.7422 -75.5622 152° Southeast 187 215 1,700 -840 Descending FAA TRACON SMA TRACON (SMA)
08:06PM 39.7158 -75.5436 189° South 166 191 1,100 -720 Descending FAA TRACON SMA TRACON (SMA)
08:07PM 39.6947 -75.5481 244° Southwest 134 154 800 -540 Descending FAA TRACON SMA TRACON (SMA)
08:08PM 39.6856 -75.5725 259° West 110 127 400 -480 Descending FAA TRACON SMA TRACON (SMA)
08:08PM 39.6833 -75.5869 259° West 109 125 200 -300 Descending FAA TRACON SMA TRACON (SMA)